Time;durP1;ratioP1;P1;durP2;ratioP2;P2;SDS_P1;SDS_P2;PMS_P1;PMS_P2;Temp;Humidity;BMP_temperature;BMP_pressure;BME280_temperature;BME280_humidity;BME280_pressure;Samples;Min_cycle;Max_cycle;Signal;HPM_P1;HPM_P2
2024/04/06 00:00:52;;;;;;;;;13.00;8.75;;;;;16.21;78.05;100496.91;5058093;28;45309;-66
2024/04/06 00:03:18;;;;;;;;;8.25;7.00;;;;;16.22;78.02;100500.38;5058958;28;45656;-67
2024/04/06 00:05:43;;;;;;;;;8.50;8.00;;;;;16.21;77.64;100493.44;5046585;28;65861;-67
2024/04/06 00:08:08;;;;;;;;;7.75;7.75;;;;;16.21;77.69;100494.28;5059371;28;74395;-66
2024/04/06 00:10:34;;;;;;;;;6.00;6.00;;;;;16.19;77.53;100488.22;5058061;27;62010;-68
2024/04/06 00:12:59;;;;;;;;;12.25;8.25;;;;;16.16;77.50;100477.81;5049568;28;67850;-67
2024/04/06 00:15:24;;;;;;;;;11.50;8.75;;;;;16.19;77.44;100485.59;5055228;28;53036;-65
2024/04/06 00:17:50;;;;;;;;;11.00;9.50;;;;;16.18;77.36;100488.31;5053430;28;74370;-66
2024/04/06 00:20:15;;;;;;;;;10.25;8.00;;;;;16.18;77.06;100490.94;5052640;28;45387;-66
2024/04/06 00:22:40;;;;;;;;;13.25;9.50;;;;;16.16;77.19;100493.66;5046049;28;68324;-66
2024/04/06 00:25:06;;;;;;;;;9.25;8.75;;;;;16.16;77.00;100488.38;5061045;28;73167;-66
2024/04/06 00:27:32;;;;;;;;;4.75;3.00;;;;;16.16;76.72;100491.03;5058220;28;74155;-66
2024/04/06 00:29:58;;;;;;;;;11.00;8.00;;;;;16.14;76.86;100488.47;5055327;28;45541;-65
2024/04/06 00:32:23;;;;;;;;;10.25;8.00;;;;;16.14;76.85;100480.53;5052544;28;45538;-66
2024/04/06 00:34:49;;;;;;;;;10.75;7.00;;;;;16.12;76.72;100477.13;5052929;28;70968;-66
2024/04/06 00:37:14;;;;;;;;;5.25;4.75;;;;;16.10;76.91;100473.72;5047547;28;75645;-65
2024/04/06 00:39:39;;;;;;;;;10.00;7.75;;;;;16.10;76.47;100470.25;5048880;28;45259;-65
2024/04/06 00:42:07;;;;;;;;;8.75;8.00;;;;;16.09;76.80;100453.53;5055121;28;69360;-67
2024/04/06 00:44:33;;;;;;;;;9.50;8.50;;;;;16.07;76.84;100450.13;5045858;28;45424;-66
2024/04/06 00:47:01;;;;;;;;;12.50;8.50;;;;;16.05;76.31;100453.81;5045651;28;45387;-65
2024/04/06 00:49:26;;;;;;;;;8.50;8.25;;;;;16.04;76.33;100460.00;5054333;28;45780;-66
2024/04/06 00:51:52;;;;;;;;;6.75;6.50;;;;;16.02;76.47;100460.09;5059545;28;45384;-66
2024/04/06 00:54:17;;;;;;;;;10.75;8.00;;;;;16.03;76.06;100463.59;5043360;28;73297;-66
2024/04/06 00:56:42;;;;;;;;;6.25;6.25;;;;;16.01;76.31;100461.03;5048441;28;46099;-67
2024/04/06 00:59:08;;;;;;;;;9.25;6.75;;;;;16.01;76.25;100463.69;5057090;28;55479;-66
2024/04/06 01:01:33;;;;;;;;;6.75;4.50;;;;;15.99;76.36;100454.13;5059649;28;45626;-65
2024/04/06 01:03:59;;;;;;;;;9.00;6.50;;;;;16.00;76.23;100450.56;5059558;27;45654;-67
2024/04/06 01:06:25;;;;;;;;;12.75;8.25;;;;;16.00;76.17;100437.38;5054755;28;75633;-65
2024/04/06 01:08:50;;;;;;;;;9.00;6.75;;;;;15.98;76.18;100428.69;5057591;28;45312;-65
2024/04/06 01:11:15;;;;;;;;;9.50;7.75;;;;;15.97;75.82;100424.31;5052720;28;45435;-65
2024/04/06 01:13:41;;;;;;;;;7.25;7.25;;;;;15.94;75.92;100409.53;5048593;28;72902;-66
2024/04/06 01:16:06;;;;;;;;;10.00;6.50;;;;;15.93;76.02;100421.84;5056533;28;64342;-66
2024/04/06 01:18:31;;;;;;;;;9.50;6.75;;;;;15.95;75.92;100427.03;5054150;28;45590;-65
2024/04/06 01:20:57;;;;;;;;;7.50;6.50;;;;;15.94;75.57;100426.19;5057111;28;67496;-66
2024/04/06 01:23:23;;;;;;;;;7.25;6.75;;;;;15.96;75.59;100423.47;5058608;28;54005;-65
2024/04/06 01:25:48;;;;;;;;;9.75;7.50;;;;;15.94;75.73;100407.72;5072063;27;46556;-65
2024/04/06 01:28:14;;;;;;;;;9.00;7.50;;;;;15.96;75.65;100401.53;5060624;28;59224;-65
2024/04/06 01:30:39;;;;;;;;;8.75;7.75;;;;;15.96;75.53;100412.94;5053612;28;69197;-65
2024/04/06 01:33:04;;;;;;;;;9.00;7.75;;;;;15.94;75.74;100420.94;5065330;28;75718;-66
2024/04/06 01:35:30;;;;;;;;;6.50;6.50;;;;;15.97;75.33;100424.31;5057365;28;73702;-66
2024/04/06 01:37:55;;;;;;;;;8.50;6.00;;;;;15.98;75.50;100423.41;5058202;28;74033;-65
2024/04/06 01:40:21;;;;;;;;;9.00;7.75;;;;;16.00;74.98;100416.25;5054794;28;50708;-65
2024/04/06 01:42:46;;;;;;;;;8.75;6.75;;;;;16.00;75.33;100397.78;5049123;28;67314;-65
2024/04/06 01:45:11;;;;;;;;;8.75;7.00;;;;;16.01;75.27;100394.22;5045490;28;69462;-65
2024/04/06 01:47:36;;;;;;;;;8.75;7.50;;;;;15.99;75.41;100396.94;5054869;28;60267;-67
2024/04/06 01:50:05;;;;;;;;;7.50;7.50;;;;;15.96;75.25;100386.53;5067497;27;64389;-67
2024/04/06 01:52:30;;;;;;;;;7.75;6.75;;;;;15.95;75.54;100395.38;5056292;28;45529;-67
2024/04/06 01:55:00;;;;;;;;;7.25;7.25;;;;;15.92;75.17;100391.13;5060119;28;55066;-67
2024/04/06 01:57:25;;;;;;;;;9.50;9.50;;;;;15.91;75.32;100392.06;5054429;28;45418;-66
2024/04/06 01:59:51;;;;;;;;;6.50;6.00;;;;;15.89;75.03;100393.09;5059986;28;45428;-66
2024/04/06 02:02:16;;;;;;;;;11.00;7.00;;;;;15.87;74.98;100381.78;5057552;28;50395;-67
2024/04/06 02:04:42;;;;;;;;;8.50;5.50;;;;;15.84;75.11;100382.78;5059312;28;60942;-67
2024/04/06 02:07:08;;;;;;;;;6.00;5.75;;;;;15.84;75.21;100387.22;5056575;28;45441;-67
2024/04/06 02:09:33;;;;;;;;;7.25;6.00;;;;;15.82;74.76;100397.00;5056413;28;45320;-66
2024/04/06 02:11:58;;;;;;;;;4.50;4.50;;;;;15.77;75.00;100397.22;5057065;28;71838;-66
2024/04/06 02:14:24;;;;;;;;;7.50;6.00;;;;;15.81;75.06;100400.56;5058025;28;67706;-66
2024/04/06 02:16:49;;;;;;;;;7.75;5.50;;;;;15.77;75.01;100401.66;5050253;28;68219;-66
2024/04/06 02:19:14;;;;;;;;;7.75;7.50;;;;;15.77;75.08;100396.41;5057638;28;49868;-65
2024/04/06 02:21:40;;;;;;;;;8.25;7.00;;;;;15.74;74.93;100387.72;5047653;28;72970;-66
2024/04/06 02:24:05;;;;;;;;;3.75;3.75;;;;;15.72;74.72;100386.91;5058616;28;61181;-68
2024/04/06 02:26:31;;;;;;;;;6.50;6.50;;;;;15.70;74.99;100388.75;5056944;28;45588;-68
2024/04/06 02:28:57;;;;;;;;;5.75;5.50;;;;;15.67;74.92;100383.66;5059862;28;45439;-66
2024/04/06 02:31:22;;;;;;;;;8.25;5.75;;;;;15.67;74.77;100382.81;5053504;28;45404;-67
2024/04/06 02:33:48;;;;;;;;;6.75;5.50;;;;;15.64;74.84;100377.72;5056225;28;45454;-67
2024/04/06 02:36:13;;;;;;;;;7.00;7.00;;;;;15.62;74.72;100377.78;5059189;28;45322;-67
2024/04/06 02:38:39;;;;;;;;;5.75;5.50;;;;;15.58;74.91;100365.69;5057614;28;45316;-66
2024/04/06 02:41:04;;;;;;;;;7.75;6.00;;;;;15.59;75.07;100367.41;5054898;28;45379;-67
2024/04/06 02:43:29;;;;;;;;;6.25;5.25;;;;;15.58;74.81;100360.41;5056538;28;74795;-66
2024/04/06 02:45:55;;;;;;;;;8.00;4.00;;;;;15.57;74.70;100356.94;5054958;28;62841;-66
2024/04/06 02:48:20;;;;;;;;;6.75;5.50;;;;;15.56;74.82;100351.72;5042482;28;65980;-67
2024/04/06 02:50:45;;;;;;;;;5.00;5.00;;;;;15.57;74.81;100350.81;5050897;28;45368;-66
2024/04/06 02:53:11;;;;;;;;;8.75;6.25;;;;;15.56;74.45;100349.97;5048569;28;56070;-66
2024/04/06 02:55:37;;;;;;;;;6.00;4.75;;;;;15.56;74.96;100342.06;5057891;28;45299;-66
2024/04/06 02:58:02;;;;;;;;;6.50;6.50;;;;;15.58;74.48;100344.56;5040465;28;65425;-65
2024/04/06 03:00:28;;;;;;;;;6.00;6.00;;;;;15.57;74.23;100350.81;5051861;28;45507;-67
2024/04/06 03:02:53;;;;;;;;;7.25;6.25;;;;;15.56;74.31;100344.69;5059103;28;46093;-66
2024/04/06 03:05:18;;;;;;;;;6.25;5.00;;;;;15.57;74.55;100345.53;5056193;28;45490;-65
2024/04/06 03:07:44;;;;;;;;;7.25;5.00;;;;;15.54;74.05;100341.25;5059001;28;45213;-67
2024/04/06 03:10:10;;;;;;;;;6.75;4.50;;;;;15.54;74.32;100345.69;5048556;28;45264;-66
2024/04/06 03:12:35;;;;;;;;;6.75;6.00;;;;;15.51;73.88;100344.09;5040531;28;48259;-66
2024/04/06 03:15:01;;;;;;;;;6.25;6.25;;;;;15.49;74.02;100343.31;5056286;28;52553;-65
2024/04/06 03:17:26;;;;;;;;;4.25;4.25;;;;;15.45;73.87;100333.84;5056500;28;51997;-67
2024/04/06 03:19:51;;;;;;;;;8.75;7.00;;;;;15.44;74.14;100334.81;5045942;28;56851;-66
2024/04/06 03:22:16;;;;;;;;;14.50;11.25;;;;;15.42;74.09;100338.44;5048899;28;75708;-66
2024/04/06 03:24:42;;;;;;;;;7.75;7.75;;;;;15.40;74.21;100327.97;5052922;28;72187;-66
2024/04/06 03:27:07;;;;;;;;;8.75;8.00;;;;;15.39;74.05;100323.66;5050485;28;45412;-65
2024/04/06 03:29:32;;;;;;;;;6.00;5.50;;;;;15.38;74.02;100329.84;5052216;28;68670;-65
2024/04/06 03:31:58;;;;;;;;;8.50;6.75;;;;;15.37;73.86;100328.16;5048925;28;76892;-65
2024/04/06 03:34:24;;;;;;;;;7.00;7.00;;;;;15.36;74.12;100324.66;5055372;28;45492;-66
2024/04/06 03:36:49;;;;;;;;;9.00;7.50;;;;;15.37;73.80;100329.00;5057918;28;45484;-66
2024/04/06 03:39:14;;;;;;;;;4.75;4.75;;;;;15.37;73.80;100320.25;5056438;28;62800;-66
2024/04/06 03:41:40;;;;;;;;;4.00;4.00;;;;;15.38;73.69;100319.28;5055724;28;64858;-65
2024/04/06 03:44:05;;;;;;;;;5.25;4.50;;;;;15.39;73.55;100321.00;5056205;28;73136;-65
2024/04/06 03:46:30;;;;;;;;;3.75;3.50;;;;;15.40;73.57;100317.41;5056521;28;55130;-65
2024/04/06 03:48:56;;;;;;;;;6.75;3.00;;;;;15.37;73.42;100300.00;5058713;28;45585;-65
2024/04/06 03:51:22;;;;;;;;;4.75;4.00;;;;;15.42;73.40;100310.28;5055048;28;75496;-65
2024/04/06 03:53:47;;;;;;;;;3.75;2.00;;;;;15.42;73.12;100302.38;5058213;28;45249;-65
2024/04/06 03:56:12;;;;;;;;;7.00;4.00;;;;;15.42;73.07;100301.53;5056833;28;69274;-66
2024/04/06 03:58:38;;;;;;;;;5.25;4.00;;;;;15.40;72.82;100293.69;5043995;28;71938;-65
2024/04/06 04:01:04;;;;;;;;;5.00;4.00;;;;;15.40;73.08;100296.31;5056484;28;45926;-65
2024/04/06 04:03:29;;;;;;;;;4.50;4.00;;;;;15.40;72.93;100292.84;5056131;28;45423;-64
2024/04/06 04:05:55;;;;;;;;;3.75;3.00;;;;;15.41;72.54;100286.66;5055149;28;45395;-65
2024/04/06 04:08:20;;;;;;;;;4.75;4.50;;;;;15.40;72.38;100279.66;5061422;27;45229;-65
2024/04/06 04:10:46;;;;;;;;;5.00;3.75;;;;;15.40;72.39;100277.88;5053078;28;73609;-65
2024/04/06 04:13:12;;;;;;;;;4.00;3.50;;;;;15.40;72.38;100283.16;5054159;28;46010;-65
2024/04/06 04:15:38;;;;;;;;;3.00;2.00;;;;;15.42;71.88;100283.06;5058933;28;45419;-65
2024/04/06 04:18:04;;;;;;;;;2.00;2.00;;;;;15.42;71.75;100275.16;5052922;28;45342;-65
2024/04/06 04:20:30;;;;;;;;;3.00;3.00;;;;;15.42;71.92;100270.72;5056025;28;45315;-65
2024/04/06 04:22:55;;;;;;;;;3.50;3.00;;;;;15.43;71.99;100258.41;5055736;28;45370;-66
2024/04/06 04:25:20;;;;;;;;;3.00;3.00;;;;;15.44;71.23;100254.81;5042544;28;51765;-66
2024/04/06 04:27:46;;;;;;;;;4.50;0.50;;;;;15.42;71.10;100249.63;5051517;28;45401;-67
2024/04/06 04:30:13;;;;;;;;;5.75;3.75;;;;;15.43;71.84;100242.59;5060875;28;64497;-66
2024/04/06 04:32:38;;;;;;;;;3.00;2.75;;;;;15.44;71.25;100250.41;5048799;28;45818;-66
2024/04/06 04:35:04;;;;;;;;;3.00;3.00;;;;;15.44;70.27;100257.47;5053200;28;45460;-66
2024/04/06 04:37:29;;;;;;;;;2.50;2.50;;;;;15.43;70.21;100243.44;5052822;28;45519;-67
2024/04/06 04:39:55;;;;;;;;;3.50;3.00;;;;;15.44;69.79;100262.72;5059435;28;50615;-66
2024/04/06 04:42:20;;;;;;;;;3.75;2.25;;;;;15.41;69.63;100258.50;5060260;28;46382;-66
2024/04/06 04:44:45;;;;;;;;;2.00;2.00;;;;;15.40;69.37;100259.41;5044879;28;68691;-66
2024/04/06 04:47:11;;;;;;;;;2.00;2.00;;;;;15.40;69.41;100250.66;5056553;28;70178;-66
2024/04/06 04:49:36;;;;;;;;;5.25;2.50;;;;;15.38;69.14;100262.13;5049143;28;68359;-66
2024/04/06 04:52:01;;;;;;;;;5.50;3.00;;;;;15.39;68.85;100249.81;5054287;28;71971;-66
2024/04/06 04:54:27;;;;;;;;;4.50;2.25;;;;;15.37;68.24;100246.41;5058659;28;45591;-65
2024/04/06 04:56:52;;;;;;;;;4.25;3.00;;;;;15.36;68.74;100242.06;5060846;28;63508;-66
2024/04/06 04:59:17;;;;;;;;;3.00;1.25;;;;;15.35;68.11;100233.31;5041019;28;51925;-66
2024/04/06 05:01:43;;;;;;;;;3.00;2.00;;;;;15.34;68.00;100241.31;5053999;28;71315;-65
2024/04/06 05:04:09;;;;;;;;;5.75;3.50;;;;;15.34;67.99;100230.75;5052667;28;45353;-65
2024/04/06 05:06:34;;;;;;;;;3.75;2.00;;;;;15.33;67.85;100232.56;5054050;28;66635;-66
2024/04/06 05:08:59;;;;;;;;;1.50;1.50;;;;;15.35;67.54;100232.44;5048511;28;45445;-65
2024/04/06 05:11:25;;;;;;;;;3.50;2.50;;;;;15.34;67.24;100236.88;5055341;28;73230;-65
2024/04/06 05:13:50;;;;;;;;;3.00;2.75;;;;;15.34;67.10;100236.03;5056992;28;67765;-65
2024/04/06 05:16:16;;;;;;;;;2.75;1.50;;;;;15.30;66.78;100235.34;5054914;28;75005;-66
2024/04/06 05:18:41;;;;;;;;;6.00;2.25;;;;;15.31;66.71;100225.66;5045377;28;46353;-64
2024/04/06 05:21:07;;;;;;;;;3.50;3.00;;;;;15.32;66.47;100233.47;5058254;28;45377;-66
2024/04/06 05:23:32;;;;;;;;;2.50;1.50;;;;;15.29;66.44;100238.06;5039812;28;45395;-65
2024/04/06 05:25:57;;;;;;;;;3.50;3.00;;;;;15.30;65.98;100239.78;5046054;28;66834;-66
2024/04/06 05:28:25;;;;;;;;;4.00;3.00;;;;;15.30;66.01;100242.41;5040302;28;46072;-66
2024/04/06 05:30:51;;;;;;;;;3.75;1.50;;;;;15.30;65.88;100242.41;5051747;28;45750;-66
2024/04/06 05:33:18;;;;;;;;;2.00;2.00;;;;;15.28;65.88;100244.25;5030348;28;45327;-65
2024/04/06 05:35:44;;;;;;;;;2.75;2.00;;;;;15.28;65.61;100246.91;5058699;28;45386;-66
2024/04/06 05:38:10;;;;;;;;;1.00;1.00;;;;;15.27;65.83;100243.41;5057550;28;46621;-66
2024/04/06 05:40:39;;;;;;;;;2.50;2.00;;;;;15.27;65.76;100235.50;5062397;28;46401;-66
2024/04/06 05:43:05;;;;;;;;;4.25;2.00;;;;;15.26;65.59;100233.78;5054452;28;45307;-66
2024/04/06 05:45:30;;;;;;;;;2.00;1.50;;;;;15.28;65.37;100229.31;5060316;28;45507;-67
2024/04/06 05:48:01;;;;;;;;;2.50;1.00;;;;;15.29;65.33;100219.63;5054679;28;69541;-67
2024/04/06 05:50:26;;;;;;;;;1.00;1.00;;;;;15.28;65.49;100215.25;5059111;28;45340;-67
2024/04/06 05:52:52;;;;;;;;;2.50;1.75;;;;;15.33;65.06;100221.13;5069745;27;49193;-66
2024/04/06 05:55:17;;;;;;;;;3.50;2.00;;;;;15.34;64.92;100214.94;5055318;28;45380;-66
2024/04/06 05:57:42;;;;;;;;;3.50;1.50;;;;;15.38;64.41;100227.00;5041816;28;69881;-66
2024/04/06 06:00:09;;;;;;;;;2.25;2.00;;;;;15.41;64.22;100221.56;5059411;28;73174;-66
2024/04/06 06:02:35;;;;;;;;;1.50;1.50;;;;;15.45;64.19;100230.16;5052397;28;45499;-66
2024/04/06 06:05:01;;;;;;;;;1.50;1.50;;;;;15.49;63.74;100235.19;5052130;28;45315;-66
2024/04/06 06:07:26;;;;;;;;;0.50;0.50;;;;;15.50;63.38;100231.59;5053400;28;46586;-67
2024/04/06 06:09:52;;;;;;;;;2.75;1.50;;;;;15.54;62.96;100221.72;5045302;28;45261;-67
2024/04/06 06:12:19;;;;;;;;;1.00;1.00;;;;;15.59;62.76;100222.34;5053115;28;69458;-67
2024/04/06 06:14:44;;;;;;;;;2.75;2.25;;;;;15.61;62.51;100209.91;5045694;28;45443;-66
2024/04/06 06:17:09;;;;;;;;;1.00;1.00;;;;;15.68;62.26;100218.31;5051003;28;45468;-65
2024/04/06 06:19:35;;;;;;;;;2.00;1.50;;;;;15.71;62.18;100218.16;5057700;28;72867;-65
2024/04/06 06:22:00;;;;;;;;;3.50;2.00;;;;;15.78;61.85;100223.97;5059658;28;54661;-65
2024/04/06 06:24:25;;;;;;;;;2.00;2.00;;;;;15.83;61.05;100208.72;5059457;28;45462;-64
2024/04/06 06:26:51;;;;;;;;;1.50;1.25;;;;;15.87;60.68;100203.19;5049781;28;45939;-65
2024/04/06 06:29:17;;;;;;;;;4.50;1.00;;;;;15.93;60.37;100196.69;5057020;28;71403;-66
2024/04/06 06:31:42;;;;;;;;;1.25;0.50;;;;;15.97;60.27;100200.88;5053279;28;45306;-64
2024/04/06 06:34:08;;;;;;;;;2.75;1.25;;;;;16.03;59.97;100197.84;5046537;28;73119;-65
2024/04/06 06:36:33;;;;;;;;;3.25;0.50;;;;;16.08;59.54;100203.72;5052502;28;72468;-65
2024/04/06 06:38:58;;;;;;;;;1.25;0.50;;;;;16.12;59.41;100202.59;5057681;28;71824;-65
2024/04/06 06:41:24;;;;;;;;;2.25;0.75;;;;;16.20;59.35;100199.53;5062175;28;45382;-65
2024/04/06 06:43:49;;;;;;;;;2.00;1.50;;;;;16.25;57.69;100200.06;5046222;28;70846;-65
2024/04/06 06:46:14;;;;;;;;;1.25;1.25;;;;;16.27;57.74;100203.50;5054888;28;56327;-65
2024/04/06 06:48:40;;;;;;;;;1.25;0.50;;;;;16.30;57.56;100198.00;5052257;28;45203;-66
2024/04/06 06:51:05;;;;;;;;;1.75;0.00;;;;;16.40;56.64;100202.78;5043033;28;69331;-65
2024/04/06 06:53:30;;;;;;;;;2.25;0.00;;;;;16.42;56.42;100193.81;5056615;28;68818;-66
2024/04/06 06:55:55;;;;;;;;;0.50;0.50;;;;;16.46;56.65;100197.09;5055957;28;57195;-65
2024/04/06 06:58:21;;;;;;;;;3.00;0.00;;;;;16.51;56.05;100195.03;5050057;28;72081;-65
2024/04/06 07:00:46;;;;;;;;;0.00;0.00;;;;;16.56;55.48;100190.31;5039504;28;45269;-65
2024/04/06 07:03:12;;;;;;;;;1.50;1.50;;;;;16.63;55.21;100183.72;5056770;28;61530;-66
2024/04/06 07:05:38;;;;;;;;;3.25;0.00;;;;;16.71;55.00;100177.97;5053540;28;46211;-67
2024/04/06 07:08:04;;;;;;;;;2.50;0.50;;;;;16.77;54.93;100174.09;5052448;28;45786;-66
2024/04/06 07:10:29;;;;;;;;;1.00;1.00;;;;;16.84;54.85;100180.75;5054996;28;45339;-65
2024/04/06 07:12:54;;;;;;;;;2.50;1.50;;;;;16.92;54.25;100180.25;5052506;28;59182;-66
2024/04/06 07:15:19;;;;;;;;;2.00;0.00;;;;;16.97;54.35;100173.75;5047466;28;75752;-65
2024/04/06 07:17:45;;;;;;;;;1.00;1.00;;;;;17.04;53.98;100180.34;5047967;28;45288;-65
2024/04/06 07:20:10;;;;;;;;;5.00;2.00;;;;;17.12;53.37;100181.66;5056147;28;48869;-66
2024/04/06 07:22:38;;;;;;;;;1.00;1.00;;;;;17.15;53.09;100186.75;5060202;27;45604;-66
2024/04/06 07:25:03;;;;;;;;;1.00;1.00;;;;;17.24;52.87;100188.81;5062368;27;45689;-65
2024/04/06 07:27:29;;;;;;;;;0.00;0.00;;;;;17.31;52.47;100189.28;5037868;28;45317;-66
2024/04/06 07:29:54;;;;;;;;;2.75;1.00;;;;;17.37;52.23;100184.44;5044319;28;45537;-66
2024/04/06 07:32:19;;;;;;;;;3.75;2.00;;;;;17.42;52.29;100166.47;5055535;28;45407;-69
2024/04/06 07:34:45;;;;;;;;;1.50;1.00;;;;;17.51;51.93;100178.25;5053041;28;67703;-64
2024/04/06 07:37:10;;;;;;;;;0.75;0.75;;;;;17.57;51.55;100177.84;5057619;28;49345;-67
2024/04/06 07:39:35;;;;;;;;;1.50;0.75;;;;;17.61;51.20;100158.16;5058110;28;66680;-63
2024/04/06 07:42:01;;;;;;;;;2.25;0.75;;;;;17.67;50.95;100156.06;5057131;28;71410;-64
2024/04/06 07:44:26;;;;;;;;;1.00;1.00;;;;;17.76;50.53;100163.41;5056965;28;46161;-62
2024/04/06 07:46:51;;;;;;;;;2.75;2.00;;;;;17.81;50.71;100148.94;5057176;28;71992;-65
2024/04/06 07:49:17;;;;;;;;;2.25;1.00;;;;;17.89;50.11;100147.59;5055758;28;45448;-63
2024/04/06 07:51:43;;;;;;;;;2.00;0.00;;;;;17.93;49.67;100151.72;5048887;28;45439;-63
2024/04/06 07:54:08;;;;;;;;;1.00;1.00;;;;;18.01;49.91;100155.56;5033231;28;46423;-71
2024/04/06 07:56:34;;;;;;;;;1.00;1.00;;;;;18.10;49.65;100153.25;5058189;28;45469;-63
2024/04/06 07:58:59;;;;;;;;;1.50;1.00;;;;;18.16;48.70;100150.19;5041961;28;68329;-66
2024/04/06 08:01:25;;;;;;;;;2.00;0.75;;;;;18.24;48.92;100149.63;5055405;28;73196;-62
2024/04/06 08:03:50;;;;;;;;;1.25;1.00;;;;;18.30;48.75;100150.06;5054084;28;45868;-61
2024/04/06 08:06:18;;;;;;;;;1.25;0.75;;;;;18.35;48.35;100142.66;5079521;27;72932;-62
2024/04/06 08:08:44;;;;;;;;;1.00;1.00;;;;;18.44;48.33;100157.06;5054795;28;45534;-62
2024/04/06 08:11:09;;;;;;;;;1.00;1.00;;;;;18.50;47.89;100147.84;5057755;28;45540;-64
2024/04/06 08:13:34;;;;;;;;;1.00;1.00;;;;;18.57;47.92;100138.50;5054877;28;73677;-70
2024/04/06 08:16:00;;;;;;;;;3.75;1.00;;;;;18.62;47.38;100125.78;5055049;28;73349;-66
2024/04/06 08:18:25;;;;;;;;;1.00;1.00;;;;;18.69;47.55;100127.06;5036982;28;45635;-62
2024/04/06 08:20:51;;;;;;;;;2.00;1.00;;;;;18.77;47.56;100111.47;5057931;28;71878;-60
2024/04/06 08:23:17;;;;;;;;;4.00;3.50;;;;;18.84;47.39;100111.91;5060960;28;47201;-58
2024/04/06 08:25:44;;;;;;;;;35.75;30.25;;;;;18.88;47.13;100109.88;5058792;28;45518;-60
2024/04/06 08:28:10;;;;;;;;;4.00;3.00;;;;;18.95;47.54;100125.22;5060939;28;45422;-59
2024/04/06 08:30:35;;;;;;;;;1.75;1.00;;;;;19.00;46.28;100127.56;5056940;28;72994;-60
2024/04/06 08:33:00;;;;;;;;;2.00;1.00;;;;;19.06;46.48;100128.91;5058259;28;73275;-59
2024/04/06 08:35:26;;;;;;;;;3.25;1.00;;;;;19.13;45.41;100136.31;5059029;28;57343;-59
2024/04/06 08:37:51;;;;;;;;;2.50;1.00;;;;;19.26;45.50;100138.06;5056937;28;69346;-60
2024/04/06 08:40:16;;;;;;;;;3.50;2.25;;;;;19.40;45.44;100124.63;5058630;27;45327;-59
2024/04/06 08:42:43;;;;;;;;;9.50;6.75;;;;;19.51;45.48;100130.00;5058224;28;75560;-59
2024/04/06 08:45:10;;;;;;;;;28.25;26.75;;;;;19.66;45.97;100122.72;5061753;28;45727;-57
2024/04/06 08:47:36;;;;;;;;;6.50;3.00;;;;;19.80;45.48;100124.34;5042081;28;45277;-58
2024/04/06 08:50:09;;;;;;;;;2.00;2.00;;;;;19.94;44.53;100120.66;5054199;28;45407;-57
2024/04/06 08:52:36;;;;;;;;;0.75;0.75;;;;;20.06;44.40;100118.84;5046004;28;46068;-57
2024/04/06 08:55:03;;;;;;;;;1.00;1.00;;;;;20.16;44.50;100119.84;5046241;28;45330;-58
2024/04/06 08:57:28;;;;;;;;;3.50;1.75;;;;;20.29;44.46;100111.78;5061645;28;45414;-58
2024/04/06 08:59:55;;;;;;;;;0.75;0.75;;;;;20.36;44.28;100109.50;5061253;28;51858;-59
2024/04/06 09:02:20;;;;;;;;;2.25;1.00;;;;;20.41;44.07;100116.13;5043237;28;76655;-60
2024/04/06 09:04:46;;;;;;;;;2.00;2.00;;;;;20.48;43.35;100133.28;5044023;28;73294;-59
2024/04/06 09:07:11;;;;;;;;;1.00;1.00;;;;;20.53;43.22;100143.56;5060055;28;68348;-65
2024/04/06 09:09:37;;;;;;;;;1.75;1.50;;;;;20.64;42.70;100172.84;5055110;28;62595;-65
2024/04/06 09:12:03;;;;;;;;;2.25;1.00;;;;;20.73;42.91;100176.59;5047311;28;46177;-61
2024/04/06 09:14:31;;;;;;;;;2.75;1.00;;;;;20.82;42.92;100178.56;5055827;28;45798;-60
2024/04/06 09:16:58;;;;;;;;;1.00;1.00;;;;;20.93;42.47;100176.81;5051455;28;45366;-59
2024/04/06 09:19:24;;;;;;;;;2.25;2.00;;;;;21.03;42.82;100173.34;5046992;28;73852;-61
2024/04/06 09:21:50;;;;;;;;;1.50;0.25;;;;;21.13;42.57;100173.44;5055405;28;46823;-61
2024/04/06 09:24:15;;;;;;;;;0.00;0.00;;;;;21.22;41.99;100169.19;5060440;28;73388;-59
2024/04/06 09:26:40;;;;;;;;;2.00;0.50;;;;;21.31;41.34;100170.25;5052416;28;68188;-58
2024/04/06 09:29:06;;;;;;;;;1.50;1.00;;;;;21.42;42.01;100164.91;5061162;28;45339;-59
2024/04/06 09:31:34;;;;;;;;;2.75;1.75;;;;;21.55;41.84;100165.63;5074417;27;75295;-60
2024/04/06 09:34:00;;;;;;;;;0.25;0.25;;;;;21.65;41.15;100151.56;5058792;28;52480;-59
2024/04/06 09:36:25;;;;;;;;;17.75;12.00;;;;;21.73;41.59;100154.44;5048569;28;45257;-60
2024/04/06 09:38:52;;;;;;;;;5.00;1.75;;;;;21.80;41.24;100161.78;5047654;28;45183;-65
2024/04/06 09:41:20;;;;;;;;;1.75;0.75;;;;;21.87;41.25;100153.25;5059521;28;46398;-60
2024/04/06 09:43:46;;;;;;;;;1.00;1.00;;;;;21.94;40.61;100159.78;5055455;28;45510;-57
2024/04/06 09:46:12;;;;;;;;;1.00;1.00;;;;;22.03;40.70;100160.81;5060626;28;45412;-59
2024/04/06 09:48:41;;;;;;;;;1.00;0.00;;;;;22.08;40.12;100159.47;5054725;28;45925;-58
2024/04/06 09:51:07;;;;;;;;;41.00;31.75;;;;;22.15;39.91;100162.44;5053894;28;45372;-58
2024/04/06 09:53:33;;;;;;;;;0.75;0.00;;;;;22.20;39.98;100152.22;5060240;28;45376;-58
2024/04/06 09:55:59;;;;;;;;;2.00;2.00;;;;;22.29;40.07;100147.97;5060587;28;45583;-60
2024/04/06 09:58:28;;;;;;;;;2.00;1.00;;;;;22.37;40.41;100156.16;5059494;28;45450;-57
2024/04/06 10:00:54;;;;;;;;;1.00;1.00;;;;;22.45;39.71;100168.81;5059205;28;45450;-59
2024/04/06 10:03:21;;;;;;;;;1.25;1.00;;;;;22.52;39.45;100146.84;5052550;28;45237;-59
2024/04/06 10:05:49;;;;;;;;;1.00;1.00;;;;;22.58;39.57;100158.78;5061390;28;45307;-58
2024/04/06 10:08:17;;;;;;;;;2.25;0.25;;;;;22.67;40.01;100162.50;5059680;27;45453;-58
2024/04/06 10:10:47;;;;;;;;;2.75;1.00;;;;;22.69;39.31;100153.34;5056118;28;46379;-59
2024/04/06 10:13:20;;;;;;;;;2.00;1.00;;;;;22.78;39.18;100170.38;5071060;28;45786;-58
2024/04/06 10:15:46;;;;;;;;;3.00;1.75;;;;;22.78;38.68;100165.03;5059296;28;45315;-59
2024/04/06 10:18:12;;;;;;;;;4.00;2.75;;;;;22.82;38.75;100169.13;5038407;28;45715;-59
2024/04/06 10:20:39;;;;;;;;;1.00;1.00;;;;;22.88;38.40;100162.44;5048236;28;45668;-59
2024/04/06 10:23:05;;;;;;;;;3.50;1.00;;;;;22.91;39.01;100155.00;5041281;28;45752;-59
2024/04/06 10:25:37;;;;;;;;;1.25;1.00;;;;;22.97;38.92;100150.09;5041667;28;45695;-60
2024/04/06 10:28:05;;;;;;;;;1.75;1.00;;;;;23.02;38.64;100154.06;5053360;28;45712;-60
2024/04/06 10:30:32;;;;;;;;;2.00;2.00;;;;;23.09;38.81;100146.38;5045622;28;45747;-60
2024/04/06 10:32:57;;;;;;;;;20.50;19.50;;;;;23.16;38.75;100152.00;5056245;28;45696;-60
2024/04/06 10:35:24;;;;;;;;;6.50;6.50;;;;;23.20;38.64;100145.41;5057309;28;47921;-59
2024/04/06 10:37:50;;;;;;;;;0.00;0.00;;;;;23.22;38.71;100146.13;5028666;28;45408;-60
2024/04/06 10:40:15;;;;;;;;;2.50;2.00;;;;;23.21;38.54;100147.91;5044587;28;45442;-61
2024/04/06 10:42:41;;;;;;;;;2.75;2.25;;;;;23.21;38.21;100149.75;5052175;28;45260;-59
2024/04/06 10:45:08;;;;;;;;;1.25;1.00;;;;;23.22;38.01;100146.94;5059429;28;45279;-60
2024/04/06 10:47:37;;;;;;;;;4.00;2.75;;;;;23.24;38.31;100144.97;5054829;28;45391;-59
2024/04/06 10:50:02;;;;;;;;;4.00;1.25;;;;;23.29;38.25;100147.25;5039990;28;46354;-60
2024/04/06 10:52:28;;;;;;;;;2.00;1.50;;;;;23.34;38.14;100150.34;5053074;28;45730;-60
2024/04/06 10:54:54;;;;;;;;;0.25;0.25;;;;;23.44;38.12;100156.56;5059320;28;45293;-60
2024/04/06 10:57:22;;;;;;;;;2.00;2.00;;;;;23.53;38.29;100189.56;5058572;28;45372;-60
2024/04/06 10:59:47;;;;;;;;;2.25;2.25;;;;;23.65;38.06;100182.28;5054174;28;45995;-60
2024/04/06 11:02:13;;;;;;;;;1.00;1.00;;;;;23.77;37.95;100205.22;5054271;28;47195;-62
2024/04/06 11:04:40;;;;;;;;;1.25;1.25;;;;;23.92;38.14;100205.69;5058577;28;66339;-60
2024/04/06 11:07:05;;;;;;;;;1.75;1.75;;;;;24.06;37.85;100231.13;5057536;28;45527;-60
2024/04/06 11:09:31;;;;;;;;;3.50;2.25;;;;;24.16;37.79;100223.09;5053638;28;46226;-61
2024/04/06 11:11:57;;;;;;;;;2.75;2.00;;;;;24.23;37.68;100221.56;5051527;28;45352;-62
2024/04/06 11:14:25;;;;;;;;;3.00;1.75;;;;;24.30;37.33;100220.00;5057127;28;69837;-60
2024/04/06 11:16:53;;;;;;;;;4.00;2.00;;;;;24.37;37.67;100239.81;5062057;28;45300;-62